PILOTS ONLINE: 403    ATC ONLINE: 47

KVBG - Vandenberg Air Force Base

Location

City Lompoc
Country  United States
Latitude 34° 44' 14" N
Longitude 120° 35' 2" W
Elevation 369 ft
Type Large Airport

Runways

12/30 15000 ft / 200 ft

Weather

METAR
2014/07/24 12:55
KVBG 241255Z AUTO 35003KT 10SM CLR 13/12 A2993 RMK AO2 SLP126 T01330117 TSNO $ 
TAF
2014/07/23 22:03
TAF KVBG 2322/2504 32015G25KT 9999 SKC 520009 QNH3003INS 
      BECMG 2404/2405 33012KT 9999 SCT005 SCT200 QNH2998INS 
      BECMG 2410/2411 34009KT 4800 BR BKN005 QNH2997INS 
      BECMG 2414/2415 33009KT 9999 NSW SCT007 QNH2996INS 
      BECMG 2418/2419 32015G25KT 9999 SCT007 520009 QNH2991INS 
      BECMG 2501/2502 32012KT 9999 SCT005 QNH2991INS TX25/2421Z TN13/2412Z LAST NO 
      AMDS AFT 2400 NEXT 2414

Outbound flights

Inbound flights